Dayton, OH (45448)

2:24 AM EST on December 28, 2014 (GMT -0500)
Kettering | Change Station
CLOSE
Current Station
Personal Weather Station
Location: Dayton, OH
Elevation: 915 ft
Nearby Weather Stations

Elev 915 ft 39.67 °N, 84.18 °W | Updated 6 seconds ago

Rain
Rain
41.2 °F
Feels Like 39 °F
N
3.6
Wind Variable Wind from WNW
Gusts 4.9 mph

Today
High -- | Low -- °F
--% Chance of Precip.
Yesterday
High -- | Low -- °F
Precip. -- in
7:56 AM 5:20 PM
Waxing Crescent, 45% visible
Pressure 30.01 in
Visibility 10.0 miles
Clouds Overcast 700 ft
Windchill 39 °F
Dew Point 41 °F
Humidity 99%
Rainfall 0.18 in
Snow Depth Not available.
UV 0.0 out of 12
Pollen .10 out of 12
Air Quality Not available.
Flu Activity Not available.
SPECI KMGY 280707Z AUTO 32007KT 10SM -RA OVC007 05/04 A3001 RMK AO2 CIG 004V010 P0000 T00500044 $

More Conditions Fewer Conditions

Pressure 30.01 in
Visibility 10.0 miles
Clouds Overcast 700 ft
Windchill 39 °F
Dew Point 41 °F
Humidity 99%
Rainfall 0.18 in
Snow Depth Not available.
UV 0.0 out of 12
Pollen .10 out of 12
Air Quality Not available.
Flu Activity Not available.
SPECI KMGY 280707Z AUTO 32007KT 10SM -RA OVC007 05/04 A3001 RMK AO2 CIG 004V010 P0000 T00500044 $

More Conditions Fewer Conditions

10-Day Weather Forecast

Almanac

Astronomy

Dec. 28, 2014 Rise Set
Actual Time
Civil Twilight
Nautical Twilight
Astronomical Twilight
Moon
Length of Visible Light
Length of Day
Tomorrow will be .
, % of the Moon is Illuminated

Today's Extremes

State Highs State Lows

Community

WunderPhotos

Upload Photos

1,781,210 photos uploaded!

WunderBlogs® & News

Nearby

Air Quality

  Air Quality AQ Index Pollutant
Not available.

Snow Depth

Station Depth Elevation

Earthquake Activity

City Distance Mag. Time & Date
Minimum magnitude displayed is 2.5.

Coastal Water Temperatures

Place Temperature

Nearby Weather Stations